Terminal Aerodrome Forecast
Issued by NWS

Home | Current Version | Previous Version | Text Only | Print | Product List | Glossary On
Versions: 1 2 3 4 5 6 7 8 9 10 11 12 13 14 15 16 17 18
677
FTUS43 KGRR 291740
TAFLAN
TAF
KLAN 291740Z 2918/3018 12005KT P6SM SCT025
     FM300800 00000KT 5SM BR SCT035
     FM301100 19002KT 2SM BR SCT035
     FM301300 20004KT 4SM BR BKN100
     FM301600 22008KT P6SM VCTS SCT050CB BKN100=

USA.gov is the U.S. government's official web portal to all federal, state and local government web resources and services.